createdAt,value
2019-04-22T00:01:13.684Z,95218.24
2019-04-22T00:03:49.761Z,95210.45
2019-04-22T00:06:30.816Z,95214.55
2019-04-22T00:09:05.511Z,95216.77
2019-04-22T00:11:38.383Z,95214.72
2019-04-22T00:14:06.752Z,95221.40
2019-04-22T00:16:48.781Z,95215.63
2019-04-22T00:21:47.671Z,95223.20
2019-04-22T00:24:10.658Z,95228.16
2019-04-22T00:26:50.215Z,95222.45
2019-04-22T00:29:40.769Z,95219.05
2019-04-22T00:32:00.021Z,95216.69
2019-04-22T00:34:29.396Z,95220.48
2019-04-22T00:37:00.666Z,95218.19
2019-04-22T00:39:52.055Z,95212.64
2019-04-22T00:42:09.976Z,95204.83
2019-04-22T00:44:41.677Z,95207.25
2019-04-22T00:47:17.969Z,95205.15
2019-04-22T00:52:28.065Z,95203.02
2019-04-22T00:54:49.541Z,95204.19
2019-04-22T00:57:15.362Z,95193.79
2019-04-22T00:59:45.661Z,95195.09
2019-04-22T01:02:22.994Z,95188.49
2019-04-22T01:05:09.769Z,95193.41
2019-04-22T01:07:17.595Z,95183.81
2019-04-22T01:12:26.333Z,95185.73
2019-04-22T01:14:55.594Z,95185.59
2019-04-22T01:17:27.728Z,95184.66
2019-04-22T01:20:13.079Z,95188.76
2019-04-22T01:22:27.128Z,95192.91
2019-04-22T01:24:56.139Z,95189.97
2019-04-22T01:27:22.198Z,95187.91
2019-04-22T01:29:51.748Z,95190.71
2019-04-22T01:32:17.607Z,95190.98
2019-04-22T01:35:00.644Z,95191.75
2019-04-22T01:37:28.798Z,95189.97
2019-04-22T01:40:09.771Z,95189.69
2019-04-22T01:42:39.750Z,95197.18
2019-04-22T01:45:13.995Z,95194.25
2019-04-22T01:47:46.682Z,95189.36
2019-04-22T01:50:15.833Z,95188.54
2019-04-22T01:52:46.773Z,95193.61
2019-04-22T01:57:47.723Z,95189.70
2019-04-22T02:00:11.463Z,95185.62
2019-04-22T02:02:48.788Z,95185.77
2019-04-22T02:07:54.298Z,95177.93
2019-04-22T02:10:32.332Z,95178.22
2019-04-22T02:12:55.003Z,95179.67
2019-04-22T02:15:28.677Z,95177.93
2019-04-22T02:18:03.232Z,95178.22
2019-04-22T02:20:32.939Z,95175.70
2019-04-22T02:46:41.283Z,95177.30
2019-04-22T02:51:26.253Z,95173.06
2019-04-22T02:54:22.243Z,95159.70
2019-04-22T02:59:03.927Z,95160.48
2019-04-22T03:01:30.093Z,95159.38
2019-04-22T03:06:34.820Z,95159.09
2019-04-22T03:09:03.896Z,95164.30
2019-04-22T03:11:33.426Z,95160.23
2019-04-22T03:14:13.298Z,95167.92
2019-04-22T03:26:43.721Z,95165.64
2019-04-22T03:29:13.325Z,95170.55
2019-04-22T03:37:23.283Z,95171.37
2019-04-22T03:42:07.465Z,95174.95
2019-04-22T03:44:39.113Z,95178.38
2019-04-22T03:49:47.482Z,95177.88
2019-04-22T03:57:33.144Z,95187.66
2019-04-22T03:59:41.537Z,95186.52
2019-04-22T04:12:23.749Z,95194.60
2019-04-22T04:14:57.963Z,95188.74
2019-04-22T04:17:20.729Z,95188.09
2019-04-22T04:27:43.692Z,95192.49
2019-04-22T04:30:08.322Z,95184.40
2019-04-22T04:35:12.655Z,95195.45
2019-04-22T04:40:25.100Z,95191.09
2019-04-22T04:52:52.501Z,95195.52
2019-04-22T04:55:18.060Z,95204.20
2019-04-22T05:02:44.729Z,95192.27
2019-04-22T05:05:34.977Z,95195.02
2019-04-22T05:07:48.544Z,95197.30
2019-04-22T05:15:18.495Z,95184.09
2019-04-22T05:17:55.475Z,95183.36
2019-04-22T05:20:26.963Z,95194.38
2019-04-22T05:23:01.812Z,95187.88
2019-04-22T05:25:19.586Z,95191.64
2019-04-22T05:27:52.150Z,95195.07
2019-04-22T05:30:35.876Z,95189.44
2019-04-22T05:32:47.382Z,95195.29
2019-04-22T05:37:56.614Z,95191.77
2019-04-22T05:40:24.555Z,95192.35
2019-04-22T05:42:56.375Z,95202.58
2019-04-22T05:45:28.266Z,95204.15
2019-04-22T05:47:57.566Z,95201.31
2019-04-22T05:50:22.806Z,95195.92
2019-04-22T05:53:03.382Z,95201.67
2019-04-22T05:55:36.324Z,95198.26
2019-04-22T05:58:02.800Z,95199.26
2019-04-22T06:01:05.621Z,95197.49
2019-04-22T06:03:20.904Z,95200.12
2019-04-22T06:05:45.263Z,95195.22
2019-04-22T06:08:10.220Z,95197.16
2019-04-22T06:10:48.572Z,95199.75
2019-04-22T06:13:14.618Z,95206.47
2019-04-22T06:15:49.287Z,95203.19
2019-04-22T06:18:23.925Z,95204.13
2019-04-22T06:23:26.105Z,95204.91
2019-04-22T06:28:36.999Z,95204.69
2019-04-22T06:31:02.562Z,95206.84
2019-04-22T06:33:34.670Z,95201.28
2019-04-22T06:36:05.119Z,95202.03
2019-04-22T06:41:08.609Z,95200.64
2019-04-22T06:43:38.523Z,95199.71
2019-04-22T06:46:09.888Z,95197.10
2019-04-22T06:48:36.254Z,95192.02
2019-04-22T06:51:08.222Z,95188.70
2019-04-22T06:53:41.889Z,95189.95
2019-04-22T06:56:12.490Z,95192.37
2019-04-22T06:58:39.902Z,95191.27
2019-04-22T07:01:18.201Z,95195.72
2019-04-22T07:03:48.276Z,95194.01
2019-04-22T07:06:33.439Z,95202.33
2019-04-22T07:11:16.816Z,95201.06
2019-04-22T07:13:50.358Z,95193.56
2019-04-22T07:16:30.249Z,95193.29
2019-04-22T07:21:24.313Z,95194.52
2019-04-22T07:24:02.934Z,95199.16
2019-04-22T07:26:39.636Z,95197.16
2019-04-22T07:28:56.450Z,95191.67
2019-04-22T07:31:42.903Z,95190.16
2019-04-22T07:33:58.469Z,95191.19
2019-04-22T07:39:05.567Z,95189.34
2019-04-22T07:41:32.885Z,95184.81
2019-04-22T07:44:13.893Z,95184.60
2019-04-22T07:51:41.090Z,95183.03
2019-04-22T07:54:06.509Z,95173.19
2019-04-22T07:56:42.771Z,95172.21
2019-04-22T07:59:09.599Z,95178.19
2019-04-22T08:01:41.908Z,95177.39
2019-04-22T08:04:22.899Z,95174.56
2019-04-22T08:09:20.287Z,95172.08
2019-04-22T08:11:49.933Z,95174.55
2019-04-22T08:14:22.490Z,95171.23
2019-04-22T08:16:51.995Z,95167.13
2019-04-22T08:19:23.133Z,95160.75
2019-04-22T08:21:50.659Z,95165.47
2019-04-22T08:24:22.738Z,95161.66
2019-04-22T08:26:59.349Z,95154.47
2019-04-22T08:34:25.910Z,95152.11
2019-04-22T08:37:37.054Z,95155.08
2019-04-22T08:39:33.161Z,95148.19
2019-04-22T08:42:13.887Z,95146.66
2019-04-22T08:45:08.128Z,95139.13
2019-04-22T08:49:50.834Z,95139.14
2019-04-22T08:52:16.296Z,95138.69
2019-04-22T08:54:44.598Z,95131.74
2019-04-22T08:57:18.307Z,95125.06
2019-04-22T08:59:48.958Z,95126.98
2019-04-22T09:02:23.012Z,95127.11
2019-04-22T09:04:48.026Z,95125.28
2019-04-22T09:07:28.399Z,95128.02
2019-04-22T09:09:53.667Z,95112.84
2019-04-22T09:12:23.970Z,95114.37
2019-04-22T09:14:52.057Z,95113.98
2019-04-22T09:17:39.827Z,95112.38
2019-04-22T09:22:27.222Z,95111.66
2019-04-22T09:24:57.322Z,95117.56
2019-04-22T09:27:37.132Z,95112.17
2019-04-22T09:30:01.149Z,95103.82
2019-04-22T09:32:33.153Z,95101.39
2019-04-22T09:35:02.615Z,95092.89
2019-04-22T09:37:38.977Z,95100.57
2019-04-22T09:40:11.913Z,95089.36
2019-04-22T09:42:39.749Z,95084.55
2019-04-22T09:50:08.240Z,95071.09
2019-04-22T09:52:45.663Z,95072.66
2019-04-22T09:55:18.322Z,95070.67
2019-04-22T09:57:47.101Z,95067.80
2019-04-22T10:00:16.953Z,95066.00
2019-04-22T10:02:55.403Z,95059.83
2019-04-22T10:05:21.107Z,95061.08
2019-04-22T10:07:54.823Z,95059.01
2019-04-22T10:12:54.304Z,95052.55
2019-04-22T10:15:23.343Z,95053.38
2019-04-22T10:17:58.219Z,95050.06
2019-04-22T10:20:27.000Z,95043.84
2019-04-22T10:23:03.787Z,95037.55
2019-04-22T10:25:30.160Z,95033.98
2019-04-22T10:28:01.600Z,95033.63
2019-04-22T10:30:39.300Z,95029.44
2019-04-22T10:33:00.787Z,95026.81
2019-04-22T10:35:17.198Z,95023.02
2019-04-22T10:37:42.715Z,95026.19
2019-04-22T10:40:19.591Z,95018.52
2019-04-22T10:42:51.432Z,95016.43
2019-04-22T10:45:21.988Z,95022.09
2019-04-22T10:47:52.246Z,95015.46
2019-04-22T10:50:26.291Z,95007.95
2019-04-22T10:52:55.786Z,94996.23
2019-04-22T10:55:25.752Z,94988.73
2019-04-22T10:57:55.269Z,94987.08
2019-04-22T11:00:24.751Z,94986.52
2019-04-22T11:02:54.209Z,94988.13
2019-04-22T11:05:24.125Z,94985.30
2019-04-22T11:07:59.040Z,94983.20
2019-04-22T11:10:37.046Z,94977.42
2019-04-22T11:12:56.821Z,94977.56
2019-04-22T11:15:26.730Z,94965.27
2019-04-22T11:17:57.652Z,94962.53
2019-04-22T11:20:27.697Z,94959.96
2019-04-22T11:22:58.262Z,94960.05
2019-04-22T11:25:29.834Z,94952.45
2019-04-22T11:28:00.012Z,94958.77
2019-04-22T11:30:30.558Z,94958.65
2019-04-22T11:33:00.467Z,94957.17
2019-04-22T11:35:30.168Z,94949.80
2019-04-22T11:38:01.127Z,94950.36
2019-04-22T11:40:37.876Z,94941.94
2019-04-22T11:43:03.904Z,94943.59
2019-04-22T11:45:33.651Z,94952.05
2019-04-22T11:48:03.582Z,94949.50
2019-04-22T11:50:33.635Z,94946.00
2019-04-22T11:53:03.113Z,94939.67
2019-04-22T11:55:32.953Z,94934.14
2019-04-22T11:58:03.058Z,94937.36
2019-04-22T12:00:36.987Z,94927.22
2019-04-22T12:03:07.317Z,94928.37
2019-04-22T12:05:37.572Z,94915.23
2019-04-22T12:08:09.145Z,94914.05
2019-04-22T12:10:48.293Z,94914.69
2019-04-22T12:13:10.351Z,94905.62
2019-04-22T12:15:40.807Z,94912.45
2019-04-22T12:18:11.232Z,94908.76
2019-04-22T12:20:41.466Z,94903.57
2019-04-22T12:23:11.192Z,94902.61
2019-04-22T12:25:51.653Z,94901.34
2019-04-22T12:28:15.080Z,94896.17
2019-04-22T12:30:45.715Z,94902.17
2019-04-22T12:33:16.948Z,94895.88
2019-04-22T12:35:46.565Z,94892.64
2019-04-22T12:38:17.029Z,94894.78
2019-04-22T12:40:55.337Z,94890.62
2019-04-22T12:43:22.150Z,94893.34
2019-04-22T12:45:51.980Z,94876.80
2019-04-22T12:48:23.130Z,94877.34
2019-04-22T12:50:55.960Z,94880.71
2019-04-22T12:53:26.338Z,94873.98
2019-04-22T12:55:55.869Z,94876.59
2019-04-22T12:58:27.678Z,94874.89
2019-04-22T13:00:57.250Z,94870.11
2019-04-22T13:03:26.679Z,94870.20
2019-04-22T13:05:57.401Z,94872.35
2019-04-22T13:08:27.611Z,94866.48
2019-04-22T13:11:02.952Z,94866.18
2019-04-22T13:13:29.038Z,94866.70
2019-04-22T13:15:59.341Z,94866.69
2019-04-22T13:18:37.282Z,94860.63
2019-04-22T13:21:00.424Z,94861.76
2019-04-22T13:23:29.975Z,94848.48
2019-04-22T13:26:00.901Z,94840.77
2019-04-22T13:28:31.469Z,94837.84
2019-04-22T13:31:02.033Z,94833.31
2019-04-22T13:33:32.903Z,94834.85
2019-04-22T13:36:03.773Z,94837.70
2019-04-22T13:38:33.349Z,94834.00
2019-04-22T13:41:17.291Z,94834.50
2019-04-22T13:43:34.764Z,94840.03
2019-04-22T13:46:06.012Z,94840.76
2019-04-22T13:48:58.948Z,94841.26
2019-04-22T13:51:36.197Z,94837.87
2019-04-22T13:56:35.709Z,94836.66
2019-04-22T13:58:52.827Z,94840.17
2019-04-22T14:01:14.846Z,94829.69
2019-04-22T14:04:14.398Z,94837.94
2019-04-22T14:06:44.850Z,94845.50
2019-04-22T14:09:16.718Z,94850.91
2019-04-22T14:11:52.900Z,94849.35
2019-04-22T14:14:17.727Z,94854.20
2019-04-22T14:16:47.297Z,94853.91
2019-04-22T14:19:18.262Z,94851.88
2019-04-22T14:21:49.517Z,94851.12
2019-04-22T14:24:19.818Z,94857.34
2019-04-22T14:26:59.961Z,94866.94
2019-04-22T14:29:21.755Z,94861.31
2019-04-22T14:32:04.257Z,94861.37
2019-04-22T14:34:24.145Z,94867.46
2019-04-22T14:36:55.182Z,94867.41
2019-04-22T14:39:26.146Z,94856.52
2019-04-22T14:42:19.574Z,94853.88
2019-04-22T14:47:19.939Z,94852.57
2019-04-22T14:49:55.996Z,94857.20
2019-04-22T14:52:22.733Z,94855.20
2019-04-22T14:54:45.946Z,94862.20
2019-04-22T14:57:05.179Z,94847.03
2019-04-22T14:59:35.788Z,94850.12
2019-04-22T15:02:07.676Z,94854.72
2019-04-22T15:04:37.434Z,94850.36
2019-04-22T15:07:08.583Z,94855.97
2019-04-22T15:09:39.524Z,94855.30
2019-04-22T15:12:18.419Z,94862.75
2019-04-22T15:14:41.679Z,94856.48
2019-04-22T15:17:42.892Z,94848.44
2019-04-22T15:20:37.683Z,94850.33
2019-04-22T15:23:08.489Z,94857.72
2019-04-22T15:25:38.625Z,94848.24
2019-04-22T15:28:09.237Z,94857.25
2019-04-22T15:30:39.412Z,94868.57
2019-04-22T15:33:09.702Z,94862.51
2019-04-22T15:35:39.318Z,94855.42
2019-04-22T15:38:09.051Z,94857.55
2019-04-22T15:40:38.694Z,94856.58
2019-04-22T15:43:08.774Z,94853.86
2019-04-22T15:45:39.071Z,94844.59
2019-04-22T15:48:10.295Z,94820.08
2019-04-22T15:50:40.540Z,94836.08
2019-04-22T15:53:11.540Z,94839.94
2019-04-22T15:55:42.770Z,94834.94
2019-04-22T15:58:12.350Z,94828.19
2019-04-22T16:00:55.633Z,94826.41
2019-04-22T16:03:14.304Z,94837.06
2019-04-22T16:05:44.230Z,94831.19
2019-04-22T16:08:14.989Z,94829.45
2019-04-22T16:10:46.008Z,94850.28
2019-04-22T16:13:22.335Z,94842.05
2019-04-22T16:15:46.967Z,94851.06
2019-04-22T16:18:18.034Z,94838.78
2019-04-22T16:20:48.187Z,94845.27
2019-04-22T16:23:36.267Z,94841.95
2019-04-22T16:26:26.439Z,94840.44
2019-04-22T16:28:58.072Z,94840.82
2019-04-22T16:31:27.276Z,94834.20
2019-04-22T16:33:58.316Z,94837.19
2019-04-22T16:36:29.062Z,94827.06
2019-04-22T16:38:58.740Z,94834.41
2019-04-22T16:41:28.681Z,94844.35
2019-04-22T16:43:58.784Z,94831.18
2019-04-22T16:46:29.640Z,94848.03
2019-04-22T16:48:59.349Z,94847.85
2019-04-22T16:51:29.787Z,94859.42
2019-04-22T16:54:00.015Z,94863.45
2019-04-22T16:56:33.230Z,94858.16
2019-04-22T16:59:01.013Z,94874.22
2019-04-22T17:02:01.355Z,94863.70
2019-04-22T17:04:48.936Z,94872.73
2019-04-22T17:07:20.596Z,94870.47
2019-04-22T17:09:50.125Z,94868.23
2019-04-22T17:12:19.789Z,94871.55
2019-04-22T17:14:54.769Z,94870.06
2019-04-22T17:17:20.465Z,94854.39
2019-04-22T17:19:51.376Z,94867.72
2019-04-22T17:22:21.768Z,94866.22
2019-04-22T17:24:51.845Z,94871.44
2019-04-22T17:27:22.359Z,94872.47
2019-04-22T17:29:52.485Z,94855.34
2019-04-22T17:32:23.479Z,94867.84
2019-04-22T17:34:53.860Z,94860.07
2019-04-22T17:37:26.589Z,94861.50
2019-04-22T17:40:10.128Z,94871.44
2019-04-22T17:42:47.815Z,94859.11
2019-04-22T17:45:29.451Z,94875.34
2019-04-22T17:48:20.267Z,94880.48
2019-04-22T17:50:52.037Z,94886.44
2019-04-22T17:53:26.087Z,94892.89
2019-04-22T17:55:56.813Z,94890.11
2019-04-22T17:58:29.036Z,94882.28
2019-04-22T18:00:56.717Z,94883.97
2019-04-22T18:03:20.217Z,94898.87
2019-04-22T18:05:45.885Z,94902.91
2019-04-22T18:08:33.243Z,94915.22
2019-04-22T18:10:59.857Z,94913.02
2019-04-22T18:13:41.300Z,94915.87
2019-04-22T18:16:05.454Z,94939.86
2019-04-22T18:18:36.981Z,94941.02
2019-04-22T18:21:00.714Z,94950.25
2019-04-22T18:23:22.698Z,94955.98
2019-04-22T18:26:05.119Z,94949.81
2019-04-22T18:28:47.942Z,94952.55
2019-04-22T18:31:06.300Z,94966.92
2019-04-22T18:33:38.633Z,94962.07
2019-04-22T18:36:11.261Z,94960.16
2019-04-22T18:41:15.195Z,94965.20
2019-04-22T18:43:48.314Z,94959.42
2019-04-22T18:46:15.730Z,94963.80
2019-04-22T18:48:46.442Z,94979.36
2019-04-22T18:51:31.948Z,94980.80
2019-04-22T18:54:21.189Z,94975.95
2019-04-22T18:56:52.459Z,94981.50
2019-04-22T18:59:12.416Z,94981.95
2019-04-22T19:01:33.625Z,95007.20
2019-04-22T19:04:11.371Z,95011.96
2019-04-22T19:06:56.465Z,95013.58
2019-04-22T19:09:36.174Z,95009.45
2019-04-22T19:12:18.038Z,95015.14
2019-04-22T19:14:43.618Z,95022.77
2019-04-22T19:17:10.871Z,94999.02
2019-04-22T19:19:56.174Z,95022.14
2019-04-22T19:22:03.477Z,95009.17
2019-04-22T19:24:34.494Z,95018.59
2019-04-22T19:27:09.540Z,95017.38
2019-04-22T19:29:45.103Z,95014.80
2019-04-22T19:32:18.462Z,95025.56
2019-04-22T19:34:44.320Z,95023.67
2019-04-22T19:37:13.285Z,95033.91
2019-04-22T19:39:52.649Z,95050.73
2019-04-22T19:42:24.488Z,95051.75
2019-04-22T19:44:53.452Z,95052.60
2019-04-22T19:47:38.212Z,95066.85
2019-04-22T19:49:57.914Z,95065.47
2019-04-22T19:54:57.268Z,95066.03
2019-04-22T19:57:22.537Z,95068.50
2019-04-22T19:59:55.851Z,95079.78
2019-04-22T20:02:45.195Z,95074.81
2019-04-22T20:05:30.083Z,95096.78
2019-04-22T20:07:58.894Z,95097.63
2019-04-22T20:10:30.040Z,95097.70
2019-04-22T20:13:05.055Z,95097.90
2019-04-22T20:15:29.267Z,95098.77
2019-04-22T20:18:21.730Z,95103.31
2019-04-22T20:20:42.235Z,95099.06
2019-04-22T20:23:05.169Z,95095.44
2019-04-22T20:25:35.927Z,95097.19
2019-04-22T20:28:15.077Z,95115.69
2019-04-22T20:30:39.969Z,95106.41
2019-04-22T20:33:13.877Z,95114.20
2019-04-22T20:35:46.585Z,95116.52
2019-04-22T20:38:13.541Z,95115.09
2019-04-22T20:40:42.538Z,95115.91
2019-04-22T20:43:26.173Z,95121.80
2019-04-22T20:45:51.188Z,95116.72
2019-04-22T20:48:07.875Z,95130.91
2019-04-22T20:50:54.847Z,95127.46
2019-04-22T20:53:28.109Z,95125.34
2019-04-22T20:55:52.494Z,95127.67
2019-04-22T20:58:28.618Z,95132.63
2019-04-22T21:00:50.219Z,95135.83
2019-04-22T21:03:20.875Z,95136.45
2019-04-22T21:05:52.624Z,95140.41
2019-04-22T21:08:36.633Z,95149.77
2019-04-22T21:10:57.926Z,95152.40
2019-04-22T21:13:27.850Z,95142.42
2019-04-22T21:16:10.594Z,95153.41
2019-04-22T21:18:30.540Z,95154.61
2019-04-22T21:21:11.407Z,95157.03
2019-04-22T21:23:36.613Z,95157.73
2019-04-22T21:26:11.096Z,95154.28
2019-04-22T21:28:42.967Z,95143.55
2019-04-22T21:31:18.933Z,95156.05
2019-04-22T21:33:47.239Z,95165.44
2019-04-22T21:36:20.659Z,95163.39
2019-04-22T21:38:48.375Z,95160.25
2019-04-22T21:41:16.099Z,95161.33
2019-04-22T21:43:54.767Z,95168.20
2019-04-22T21:46:23.190Z,95165.87
2019-04-22T21:48:53.088Z,95170.48
2019-04-22T21:51:29.077Z,95156.62
2019-04-22T21:59:01.859Z,95167.49
2019-04-22T22:01:52.878Z,95176.09
2019-04-22T22:04:16.987Z,95168.72
2019-04-22T22:06:39.624Z,95180.22
2019-04-22T22:09:20.484Z,95182.84
2019-04-22T22:11:46.248Z,95187.25
2019-04-22T22:14:20.839Z,95190.38
2019-04-22T22:16:45.977Z,95191.95
2019-04-22T22:19:24.008Z,95186.80
2019-04-22T22:22:02.407Z,95189.20
2019-04-22T22:24:28.920Z,95183.55
2019-04-22T22:26:57.117Z,95193.35
2019-04-22T22:29:36.949Z,95200.48
2019-04-22T22:32:02.712Z,95188.48
2019-04-22T22:34:26.725Z,95197.66
2019-04-22T22:36:52.860Z,95183.11
2019-04-22T22:39:24.902Z,95196.82
2019-04-22T22:41:44.028Z,95188.67
2019-04-22T22:44:23.499Z,95183.52
2019-04-22T22:47:05.008Z,95183.05
2019-04-22T22:49:42.855Z,95183.23
2019-04-22T22:52:32.515Z,95194.72
2019-04-22T22:54:43.978Z,95195.69
2019-04-22T22:57:19.502Z,95199.87
2019-04-22T22:59:42.999Z,95195.17
2019-04-22T23:02:11.567Z,95206.25
2019-04-22T23:04:46.002Z,95199.34
2019-04-22T23:07:22.572Z,95209.47
2019-04-22T23:09:47.343Z,95204.59
2019-04-22T23:12:31.467Z,95204.95
2019-04-22T23:14:51.462Z,95222.27
2019-04-22T23:17:07.093Z,95221.22
2019-04-22T23:19:33.697Z,95212.28
2019-04-22T23:22:14.503Z,95226.96
2019-04-22T23:24:50.575Z,95215.66
2019-04-22T23:27:26.213Z,95219.91
2019-04-22T23:30:15.655Z,95215.12
2019-04-22T23:32:43.565Z,95212.18
2019-04-22T23:35:46.654Z,95215.72
2019-04-22T23:38:16.488Z,95208.12
2019-04-22T23:40:51.815Z,95214.48
2019-04-22T23:43:27.545Z,95218.29
2019-04-22T23:45:56.423Z,95221.85
2019-04-22T23:48:27.106Z,95227.72
2019-04-22T23:51:07.256Z,95230.13
2019-04-22T23:54:04.309Z,95233.78
2019-04-22T23:56:09.233Z,95237.31
